Time;durP1;ratioP1;P1;durP2;ratioP2;P2;SDS_P1;SDS_P2;PMS_P1;PMS_P2;Temp;Humidity;BMP_temperature;BMP_pressure;BME280_temperature;BME280_humidity;BME280_pressure;Samples;Min_cycle;Max_cycle;Signal;HPM_P1;HPM_P2
2022/07/25 00:03:21;;;;;;;4.40;1.83;;;22.40;56.00;;;;;;20742647;28;20120;-78
2022/07/25 00:13:22;;;;;;;3.88;2.03;;;22.40;55.90;;;;;;20708772;28;20124;-79
2022/07/25 00:23:22;;;;;;;2.67;1.98;;;22.30;55.90;;;;;;20745098;28;20088;-79
2022/07/25 00:33:23;;;;;;;2.75;1.88;;;22.30;56.00;;;;;;20754230;28;20120;-79
2022/07/25 00:43:24;;;;;;;1.75;1.42;;;22.30;56.00;;;;;;20722840;28;20104;-77
2022/07/25 00:53:24;;;;;;;3.38;1.60;;;22.30;55.90;;;;;;20755908;28;20030;-79
2022/07/25 01:03:25;;;;;;;2.85;1.90;;;22.20;55.80;;;;;;21059122;23;20530;-79
2022/07/25 01:13:25;;;;;;;5.90;2.25;;;22.20;55.80;;;;;;20738523;28;20400;-79
2022/07/25 01:23:26;;;;;;;2.72;2.00;;;22.10;55.90;;;;;;20740458;28;20073;-79
2022/07/25 01:33:27;;;;;;;3.67;2.10;;;22.10;55.90;;;;;;20720828;28;20041;-79
2022/07/25 01:43:27;;;;;;;2.78;2.38;;;22.00;55.80;;;;;;20737510;28;20483;-78
2022/07/25 01:53:28;;;;;;;3.95;2.05;;;22.00;55.90;;;;;;20734047;28;20124;-78
2022/07/25 02:03:28;;;;;;;4.05;2.08;;;22.00;55.90;;;;;;20721812;28;20044;-78
2022/07/25 02:13:29;;;;;;;2.80;2.20;;;22.00;55.90;;;;;;20711421;28;20126;-78
2022/07/25 02:23:30;;;;;;;2.90;2.15;;;21.90;55.80;;;;;;20737868;28;20480;-79
2022/07/25 02:33:30;;;;;;;2.85;1.98;;;21.80;55.80;;;;;;20734429;28;20037;-80
2022/07/25 02:43:31;;;;;;;5.20;2.10;;;21.80;55.90;;;;;;20744646;28;20105;-79
2022/07/25 02:53:31;;;;;;;3.25;1.98;;;21.70;55.90;;;;;;20730247;28;20046;-79
2022/07/25 03:03:32;;;;;;;3.75;2.05;;;21.70;55.90;;;;;;20755667;28;20042;-79
2022/07/25 03:13:32;;;;;;;2.53;1.92;;;21.70;55.80;;;;;;20747160;28;20136;-79
2022/07/25 03:23:33;;;;;;;1.85;1.42;;;21.70;55.80;;;;;;20746982;28;20118;-79
2022/07/25 03:33:34;;;;;;;3.47;1.88;;;21.60;55.70;;;;;;20712587;28;20132;-79
2022/07/25 03:43:34;;;;;;;4.38;1.92;;;21.60;55.70;;;;;;20736390;28;20038;-78
2022/07/25 03:54:00;;;;;;;2.60;1.85;;;21.60;55.70;;;;;;20744137;28;20141;-78
2022/07/25 04:03:55;;;;;;;3.42;1.92;;;21.50;55.70;;;;;;20765058;28;20471;-79
2022/07/25 04:13:56;;;;;;;2.58;1.77;;;21.50;55.60;;;;;;20727491;28;20180;-79
2022/07/25 04:23:57;;;;;;;3.63;1.52;;;21.50;55.60;;;;;;20726895;28;20034;-78
2022/07/25 04:33:57;;;;;;;2.35;1.65;;;21.50;55.60;;;;;;20740954;28;20050;-79
2022/07/25 04:43:58;;;;;;;4.93;2.22;;;21.50;55.70;;;;;;20740740;28;20037;-78
2022/07/25 04:53:58;;;;;;;2.97;2.00;;;21.60;55.80;;;;;;20723187;28;20537;-76
2022/07/25 05:03:59;;;;;;;2.40;1.92;;;21.60;56.00;;;;;;20748949;28;20528;-77
2022/07/25 05:14:00;;;;;;;2.95;2.28;;;21.60;56.10;;;;;;20722283;28;20046;-77
2022/07/25 05:24:00;;;;;;;2.60;1.60;;;21.70;56.10;;;;;;20705885;28;20041;-77
2022/07/25 05:34:01;;;;;;;3.97;1.88;;;21.70;55.90;;;;;;20722458;28;20073;-79
2022/07/25 05:44:02;;;;;;;3.28;1.50;;;21.80;55.90;;;;;;20721537;28;20022;-80
2022/07/25 05:54:02;;;;;;;3.20;1.88;;;21.90;55.60;;;;;;20712721;28;20133;-79
2022/07/25 06:04:03;;;;;;;3.63;1.70;;;22.00;55.40;;;;;;20728740;28;20045;-79
2022/07/25 06:14:04;;;;;;;3.50;2.25;;;22.10;55.30;;;;;;20726567;28;20046;-79
2022/07/25 06:24:04;;;;;;;3.88;2.20;;;22.20;55.40;;;;;;20735260;28;20116;-81
2022/07/25 06:34:05;;;;;;;2.58;1.98;;;22.40;55.30;;;;;;20717755;28;20160;-80
2022/07/25 06:44:06;;;;;;;3.60;1.57;;;22.40;55.20;;;;;;20733121;28;20035;-77
2022/07/25 06:54:06;;;;;;;2.65;2.15;;;22.50;55.20;;;;;;20755886;28;20034;-76
2022/07/25 07:04:07;;;;;;;4.80;1.70;;;22.60;55.30;;;;;;20755640;28;20061;-75
2022/07/25 07:14:07;;;;;;;2.70;1.63;;;22.70;55.30;;;;;;20727389;28;20551;-75
2022/07/25 07:24:08;;;;;;;3.10;1.97;;;22.70;55.30;;;;;;20730685;28;20026;-70
2022/07/25 07:34:09;;;;;;;3.63;1.27;;;22.80;55.30;;;;;;20736214;28;20391;-75
2022/07/25 07:44:10;;;;;;;3.85;2.10;;;22.80;55.40;;;;;;20735449;28;20083;-73
2022/07/25 08:04:30;;;;;;;2.80;2.17;;;22.90;55.50;;;;;;20751844;28;20033;-74
2022/07/25 08:14:31;;;;;;;3.50;2.33;;;23.00;55.60;;;;;;20761008;28;20510;-75
2022/07/25 08:24:31;;;;;;;5.07;2.92;;;23.20;55.70;;;;;;20732271;28;20030;-75
2022/07/25 08:34:32;;;;;;;4.10;3.03;;;23.20;55.60;;;;;;20732306;28;20088;-72
2022/07/25 08:44:32;;;;;;;4.70;3.70;;;23.20;55.50;;;;;;20730918;28;20053;-74
2022/07/25 08:54:33;;;;;;;4.85;3.45;;;23.30;55.50;;;;;;20730784;28;20516;-78
2022/07/25 09:04:34;;;;;;;4.97;3.58;;;23.30;55.40;;;;;;20755172;28;20025;-75
2022/07/25 09:14:42;;;;;;;4.20;2.72;;;23.30;55.40;;;;;;20729991;28;20038;-75
2022/07/25 09:24:45;;;;;;;4.88;3.05;;;23.40;55.30;;;;;;20727748;28;20064;-75
2022/07/25 09:34:47;;;;;;;6.18;3.63;;;23.40;55.20;;;;;;20726758;28;20042;-75
2022/07/25 09:45:11;;;;;;;5.32;3.53;;;23.40;55.10;;;;;;20727032;28;20030;-72
2022/07/25 09:55:15;;;;;;;6.75;4.13;;;23.40;55.20;;;;;;20738427;28;20479;-74
2022/07/25 10:05:31;;;;;;;5.00;3.50;;;23.50;55.20;;;;;;20757026;28;20068;-73
2022/07/25 10:15:51;;;;;;;5.55;4.15;;;23.60;55.40;;;;;;20735887;28;20050;-77
2022/07/25 10:26:01;;;;;;;5.72;4.10;;;23.60;55.50;;;;;;20735454;28;20048;-77
2022/07/25 10:36:06;;;;;;;5.95;3.78;;;23.60;55.50;;;;;;20718980;28;20038;-71
2022/07/25 10:46:12;;;;;;;4.95;3.50;;;23.60;55.60;;;;;;20748958;28;20053;-75
2022/07/25 10:56:13;;;;;;;6.57;4.07;;;23.60;55.60;;;;;;20732224;28;20140;-72
2022/07/25 11:06:14;;;;;;;7.43;3.97;;;23.70;55.60;;;;;;20755888;28;20125;-71
2022/07/25 11:16:14;;;;;;;4.53;3.95;;;23.70;55.50;;;;;;20721011;28;20046;-71
2022/07/25 11:26:15;;;;;;;5.45;3.75;;;23.80;55.50;;;;;;20729725;28;20038;-71
2022/07/25 11:36:15;;;;;;;4.37;3.30;;;23.90;55.60;;;;;;20729392;28;20038;-71
2022/07/25 11:46:17;;;;;;;5.18;3.15;;;23.80;55.50;;;;;;20728989;28;20049;-70
2022/07/25 11:56:19;;;;;;;5.22;3.85;;;23.80;55.50;;;;;;20744777;28;20045;-70
2022/07/25 12:06:19;;;;;;;4.47;3.50;;;23.80;55.50;;;;;;20730148;28;20033;-69
2022/07/25 12:16:20;;;;;;;7.00;3.10;;;23.90;55.30;;;;;;20722739;28;20042;-72
2022/07/25 12:26:21;;;;;;;7.13;3.67;;;23.90;55.00;;;;;;20708524;28;20065;-72
2022/07/25 12:36:21;;;;;;;4.57;3.72;;;24.00;54.90;;;;;;20741228;28;20034;-74
2022/07/25 12:46:22;;;;;;;6.20;3.57;;;24.00;55.00;;;;;;20723470;28;20037;-71
2022/07/25 12:56:22;;;;;;;5.57;3.13;;;24.00;55.10;;;;;;20722867;28;20301;-71
2022/07/25 13:06:23;;;;;;;4.43;3.13;;;24.00;55.20;;;;;;20706760;28;20069;-75
2022/07/25 13:16:24;;;;;;;8.77;3.50;;;24.10;55.30;;;;;;20708649;28;20073;-73
2022/07/25 13:26:24;;;;;;;4.85;3.10;;;24.10;55.40;;;;;;20706470;28;20053;-75
2022/07/25 13:36:25;;;;;;;4.67;3.37;;;24.20;55.40;;;;;;20738409;28;20038;-76
2022/07/25 13:46:25;;;;;;;4.30;3.40;;;24.30;55.40;;;;;;20721627;28;20034;-76
2022/07/25 13:56:26;;;;;;;4.70;3.47;;;24.20;55.50;;;;;;20714093;28;20034;-74
2022/07/25 14:06:26;;;;;;;5.50;4.27;;;24.20;55.50;;;;;;20715797;28;20077;-76
2022/07/25 14:16:27;;;;;;;6.30;3.63;;;24.50;55.10;;;;;;20721903;28;20304;-76
2022/07/25 14:26:29;;;;;;;4.60;3.33;;;24.50;55.40;;;;;;20724090;28;20073;-78
2022/07/25 14:36:30;;;;;;;6.10;3.22;;;24.50;55.60;;;;;;20730053;28;20033;-74
2022/07/25 14:46:31;;;;;;;6.75;2.78;;;24.40;56.30;;;;;;20731650;28;20080;-77
2022/07/25 14:56:31;;;;;;;4.78;3.10;;;24.50;55.80;;;;;;20717260;28;20041;-75
2022/07/25 15:06:32;;;;;;;5.20;2.83;;;24.60;55.80;;;;;;20755911;28;20133;-76
2022/07/25 15:16:32;;;;;;;4.95;3.75;;;24.60;55.70;;;;;;20730595;28;20042;-75
2022/07/25 15:26:33;;;;;;;5.70;3.40;;;24.70;55.70;;;;;;20730252;28;20109;-76
2022/07/25 15:36:33;;;;;;;4.75;3.17;;;24.70;55.60;;;;;;20745752;28;20041;-75
2022/07/25 15:46:34;;;;;;;4.65;3.50;;;24.80;55.50;;;;;;20728899;28;20042;-74
2022/07/25 15:56:35;;;;;;;5.10;3.72;;;24.70;55.50;;;;;;20709064;28;20142;-77
2022/07/25 16:06:35;;;;;;;4.88;3.53;;;24.80;55.50;;;;;;20742055;28;20507;-79
2022/07/25 16:16:36;;;;;;;4.03;3.22;;;24.80;55.60;;;;;;20726654;28;20046;-78
2022/07/25 16:26:36;;;;;;;5.05;3.97;;;24.80;55.80;;;;;;20744509;28;20044;-78
2022/07/25 16:36:37;;;;;;;3.83;3.27;;;24.90;55.90;;;;;;20745290;28;20037;-78
2022/07/25 16:46:38;;;;;;;11.80;4.05;;;24.90;56.00;;;;;;20712916;28;20038;-77
2022/07/25 16:56:38;;;;;;;5.15;3.55;;;24.80;56.40;;;;;;20725084;28;20091;-78
2022/07/25 17:06:39;;;;;;;7.13;5.00;;;24.80;57.70;;;;;;20733526;28;20125;-78
2022/07/25 17:16:40;;;;;;;6.35;4.15;;;24.70;59.10;;;;;;20708040;28;20786;-78
2022/07/25 17:26:42;;;;;;;7.53;5.03;;;24.60;59.90;;;;;;20725227;28;20053;-78
2022/07/25 17:36:42;;;;;;;5.65;4.13;;;24.60;60.20;;;;;;20724719;28;20080;-79
2022/07/25 17:46:43;;;;;;;5.35;4.10;;;24.60;60.60;;;;;;20737828;28;20030;-74
2022/07/25 17:56:44;;;;;;;5.18;4.15;;;24.60;60.90;;;;;;20730790;28;20040;-75
2022/07/25 18:06:44;;;;;;;4.72;3.63;;;24.60;61.20;;;;;;20764750;28;20096;-74
2022/07/25 18:16:45;;;;;;;4.23;2.90;;;24.60;61.50;;;;;;20734552;28;20040;-75
2022/07/25 18:26:46;;;;;;;6.28;3.78;;;24.60;61.90;;;;;;20734424;28;20037;-77
2022/07/25 18:36:46;;;;;;;6.20;2.83;;;24.50;62.10;;;;;;20708547;28;20551;-87
2022/07/25 18:46:47;;;;;;;5.20;2.27;;;24.50;62.40;;;;;;20751625;28;20041;-79
2022/07/25 18:56:47;;;;;;;4.10;2.30;;;24.50;62.40;;;;;;20777909;28;20300;-78
2022/07/25 19:06:49;;;;;;;4.53;1.95;;;24.50;62.50;;;;;;20729793;28;20045;-78
2022/07/25 19:16:49;;;;;;;3.08;2.00;;;24.50;62.60;;;;;;20769306;28;20489;-78
2022/07/25 19:26:57;;;;;;;5.20;2.50;;;24.50;62.60;;;;;;20761988;28;20117;-77
2022/07/25 19:36:58;;;;;;;4.07;1.85;;;24.50;62.70;;;;;;20724970;28;20463;-76
2022/07/25 19:46:59;;;;;;;3.15;1.70;;;24.50;62.80;;;;;;20735684;28;20033;-77
2022/07/25 19:56:59;;;;;;;3.10;1.80;;;24.50;62.80;;;;;;20733263;28;20056;-77
2022/07/25 20:07:01;;;;;;;4.05;2.00;;;24.40;62.70;;;;;;20757820;28;20034;-76
2022/07/25 20:17:01;;;;;;;3.88;1.90;;;24.40;62.80;;;;;;20731649;28;20392;-77
2022/07/25 20:27:02;;;;;;;5.03;2.05;;;24.40;62.70;;;;;;20714959;28;20042;-77
2022/07/25 20:37:03;;;;;;;2.35;1.52;;;24.40;62.70;;;;;;20730051;28;20034;-77
2022/07/25 20:47:03;;;;;;;2.38;1.85;;;24.40;62.70;;;;;;20728521;28;20494;-77
2022/07/25 20:57:04;;;;;;;4.30;1.55;;;24.40;62.70;;;;;;20726967;28;20046;-76
2022/07/25 21:07:05;;;;;;;2.37;1.63;;;24.30;62.70;;;;;;20751225;28;20396;-77
2022/07/25 21:17:05;;;;;;;3.10;1.90;;;24.30;62.70;;;;;;20743088;28;20034;-78
2022/07/25 21:27:06;;;;;;;4.45;2.47;;;24.30;62.80;;;;;;20710125;28;20473;-77
2022/07/25 21:37:06;;;;;;;3.58;2.08;;;24.20;62.80;;;;;;20726396;28;20041;-77
2022/07/25 21:47:07;;;;;;;3.42;2.08;;;24.30;62.90;;;;;;20739668;28;20052;-77
2022/07/25 21:57:07;;;;;;;4.30;2.22;;;24.20;63.60;;;;;;20739950;28;20045;-77
2022/07/25 22:07:08;;;;;;;5.35;2.10;;;24.20;63.10;;;;;;20721590;28;20044;-77
2022/07/25 22:17:09;;;;;;;4.32;1.95;;;24.30;63.30;;;;;;20719629;28;20129;-78
2022/07/25 22:27:09;;;;;;;3.00;1.85;;;24.20;63.30;;;;;;20756344;28;20064;-77
2022/07/25 22:37:10;;;;;;;5.93;1.90;;;24.20;63.10;;;;;;20754893;28;20057;-77
2022/07/25 22:47:10;;;;;;;2.80;1.50;;;24.20;62.80;;;;;;20738198;28;20056;-77
2022/07/25 22:57:11;;;;;;;4.53;2.00;;;24.10;62.50;;;;;;20736369;28;20431;-77
2022/07/25 23:07:12;;;;;;;2.78;1.63;;;24.10;61.90;;;;;;20735639;28;20056;-76
2022/07/25 23:17:23;;;;;;;4.87;1.57;;;24.10;61.40;;;;;;20736959;28;20449;-79
2022/07/25 23:27:24;;;;;;;2.65;1.30;;;24.10;61.00;;;;;;20720885;28;20288;-76
2022/07/25 23:37:24;;;;;;;4.00;1.65;;;24.10;60.80;;;;;;20719404;28;20033;-76
2022/07/25 23:47:25;;;;;;;3.60;1.60;;;24.00;60.50;;;;;;20734247;28;20037;-77
2022/07/25 23:57:26;;;;;;;3.30;1.15;;;24.00;60.20;;;;;;20732528;28;20566;-77
